Time;durP1;ratioP1;P1;durP2;ratioP2;P2;SDS_P1;SDS_P2;PMS_P1;PMS_P2;Temp;Humidity;BMP_temperature;BMP_pressure;BME280_temperature;BME280_humidity;BME280_pressure;Samples;Min_cycle;Max_cycle;Signal;HPM_P1;HPM_P2
2021/12/02 00:00:18;;;;;;;1.60;0.70;;;6.50;99.90;;;;;;4957426;28;20180;-73
2021/12/02 00:02:44;;;;;;;0.83;0.50;;;6.40;99.90;;;;;;4956726;28;20295;-71
2021/12/02 00:05:09;;;;;;;3.53;0.50;;;6.40;99.90;;;;;;4957090;28;20178;-73
2021/12/02 00:07:35;;;;;;;1.57;0.70;;;6.30;99.90;;;;;;4957044;28;20415;-74
2021/12/02 00:10:01;;;;;;;2.17;0.60;;;6.30;99.90;;;;;;4957077;28;20175;-73
2021/12/02 00:12:26;;;;;;;0.70;0.70;;;6.30;99.90;;;;;;4957051;28;20198;-73
2021/12/02 00:14:52;;;;;;;2.63;1.37;;;6.20;99.90;;;;;;4956589;28;20807;-73
2021/12/02 00:17:24;;;;;;;1.97;1.80;;;6.20;99.90;;;;;;4957202;28;20173;-73
2021/12/02 00:23:18;;;;;;;1.90;0.77;;;6.00;99.90;;;;;;4956714;29;20519;-73
2021/12/02 00:25:44;;;;;;;0.77;0.70;;;5.90;99.90;;;;;;4945190;28;20455;-73
2021/12/02 00:28:10;;;;;;;2.50;0.63;;;5.90;99.90;;;;;;4956625;28;20418;-73
2021/12/02 00:30:37;;;;;;;6.47;0.67;;;5.90;99.90;;;;;;4956706;28;20418;-72
2021/12/02 00:33:03;;;;;;;0.60;0.60;;;5.90;99.90;;;;;;4956211;28;20433;-73
2021/12/02 00:35:28;;;;;;;1.57;0.60;;;5.90;99.90;;;;;;4956762;28;20788;-74
2021/12/02 00:37:56;;;;;;;5.70;0.60;;;5.80;99.90;;;;;;4956520;28;20473;-73
2021/12/02 00:40:21;;;;;;;1.47;0.50;;;5.90;99.90;;;;;;4956836;28;20193;-73
2021/12/02 00:42:47;;;;;;;1.73;0.63;;;5.80;99.90;;;;;;4955855;28;20845;-72
2021/12/02 00:45:13;;;;;;;2.60;0.60;;;5.80;99.90;;;;;;4955670;28;20608;-74
2021/12/02 00:47:38;;;;;;;0.70;0.70;;;5.70;99.90;;;;;;4956303;28;20423;-74
2021/12/02 00:50:05;;;;;;;1.33;0.60;;;5.70;99.90;;;;;;4956337;28;20183;-74
2021/12/02 00:52:31;;;;;;;0.60;0.50;;;5.60;99.90;;;;;;4955942;28;20207;-74
2021/12/02 00:54:57;;;;;;;1.93;0.63;;;5.60;99.90;;;;;;4956050;28;20883;-73
2021/12/02 00:57:23;;;;;;;1.80;0.50;;;5.60;99.90;;;;;;4956427;28;20400;-73
2021/12/02 00:59:49;;;;;;;1.23;0.60;;;5.50;99.90;;;;;;4956097;28;20430;-73
2021/12/02 05:31:31;;;;;;;0.60;0.60;;;4.80;99.90;;;;;;5637266;23;20478;-73
2021/12/02 05:33:56;;;;;;;2.10;1.50;;;4.90;99.90;;;;;;4952394;28;20574;-73
2021/12/02 05:36:22;;;;;;;1.73;0.70;;;4.90;99.90;;;;;;4941656;28;20223;-75
2021/12/02 05:38:48;;;;;;;3.13;0.93;;;4.90;99.90;;;;;;4936526;29;20174;-74
2021/12/02 05:41:14;;;;;;;0.70;0.70;;;4.80;99.90;;;;;;4935887;29;20217;-74
2021/12/02 05:43:40;;;;;;;1.03;0.50;;;4.80;99.90;;;;;;4936192;29;20422;-74
2021/12/02 05:46:06;;;;;;;0.93;0.50;;;4.80;99.90;;;;;;4936192;29;20411;-74
2021/12/02 05:48:32;;;;;;;0.60;0.50;;;4.80;99.90;;;;;;4936315;29;20236;-74
2021/12/02 05:50:58;;;;;;;2.83;0.73;;;4.80;99.90;;;;;;4936308;29;20421;-74
2021/12/02 05:53:23;;;;;;;0.80;0.50;;;4.80;99.90;;;;;;4935851;29;20189;-74
2021/12/02 05:55:49;;;;;;;2.70;0.60;;;4.80;99.90;;;;;;4935617;29;20224;-74
2021/12/02 05:58:15;;;;;;;1.00;0.50;;;4.70;99.90;;;;;;4935744;29;20710;-75
2021/12/02 06:00:42;;;;;;;2.40;0.50;;;4.80;99.90;;;;;;4935660;29;20185;-74
2021/12/02 06:03:07;;;;;;;0.40;0.40;;;4.80;99.90;;;;;;4935363;29;20236;-75
2021/12/02 06:05:33;;;;;;;0.60;0.53;;;4.80;99.90;;;;;;4935903;29;20397;-76
2021/12/02 06:08:01;;;;;;;1.77;0.40;;;4.70;99.90;;;;;;4935762;29;20726;-75
2021/12/02 06:10:27;;;;;;;0.93;0.70;;;4.70;99.90;;;;;;4935653;29;20245;-73
2021/12/02 06:12:53;;;;;;;1.13;1.03;;;4.70;99.90;;;;;;4935512;29;20393;-73
2021/12/02 06:15:19;;;;;;;7.60;1.00;;;4.70;99.90;;;;;;4935477;29;20728;-74
2021/12/02 06:17:44;;;;;;;0.87;0.50;;;4.70;99.90;;;;;;4935527;29;20204;-73
2021/12/02 06:20:13;;;;;;;0.67;0.60;;;4.60;99.90;;;;;;4935429;29;20424;-73
2021/12/02 06:22:39;;;;;;;1.67;0.50;;;4.60;99.90;;;;;;4935167;29;20238;-72
2021/12/02 06:27:37;;;;;;;1.13;0.60;;;4.60;99.90;;;;;;4935783;29;20435;-73
2021/12/02 06:30:03;;;;;;;1.00;0.80;;;4.60;99.90;;;;;;4935132;29;20456;-73
2021/12/02 06:32:29;;;;;;;0.93;0.73;;;4.60;99.90;;;;;;4935039;29;20284;-71
2021/12/02 06:34:54;;;;;;;1.53;0.80;;;4.60;99.90;;;;;;4935109;29;20405;-73
2021/12/02 06:37:21;;;;;;;2.13;1.93;;;4.60;99.90;;;;;;4935275;29;20190;-73
2021/12/02 06:39:46;;;;;;;2.90;2.70;;;4.60;99.90;;;;;;4935178;29;20178;-73
2021/12/02 06:42:12;;;;;;;2.60;2.17;;;4.50;99.90;;;;;;4934855;29;21009;-73
2021/12/02 06:44:38;;;;;;;1.93;1.83;;;4.40;99.90;;;;;;4934179;29;20182;-71
2021/12/02 06:47:03;;;;;;;1.00;0.90;;;4.40;99.90;;;;;;4934952;29;20187;-72
2021/12/02 06:49:31;;;;;;;0.80;0.80;;;4.30;99.90;;;;;;4934809;29;20982;-71
2021/12/02 06:51:56;;;;;;;0.90;0.90;;;4.30;99.90;;;;;;4934724;29;20638;-72
2021/12/02 06:54:22;;;;;;;4.67;1.73;;;4.30;99.90;;;;;;4934770;29;20405;-73
2021/12/02 06:56:47;;;;;;;1.43;1.33;;;4.30;99.90;;;;;;4935032;29;20265;-71
2021/12/02 06:59:13;;;;;;;0.70;0.70;;;4.30;99.90;;;;;;4934676;29;20207;-74
2021/12/02 07:01:39;;;;;;;0.70;0.70;;;4.30;99.90;;;;;;4934984;29;20209;-73
2021/12/02 07:04:04;;;;;;;0.70;0.50;;;4.20;99.90;;;;;;4934794;29;20174;-73
2021/12/02 07:06:30;;;;;;;1.00;1.00;;;4.20;99.90;;;;;;4935049;29;20257;-73
2021/12/02 07:08:55;;;;;;;1.00;0.80;;;4.20;99.90;;;;;;4934842;29;20179;-73
2021/12/02 07:11:21;;;;;;;1.23;1.13;;;4.20;99.90;;;;;;4933502;29;20201;-74
2021/12/02 07:13:49;;;;;;;1.43;0.50;;;4.20;99.90;;;;;;4930987;29;20190;-73
2021/12/02 07:16:15;;;;;;;0.43;0.43;;;4.20;99.90;;;;;;4925923;29;20178;-72
2021/12/02 07:18:46;;;;;;;0.80;0.50;;;4.20;99.90;;;;;;4932806;29;20476;-70
2021/12/02 07:21:12;;;;;;;0.80;0.80;;;4.20;99.90;;;;;;4934009;29;20592;-71
2021/12/02 07:23:37;;;;;;;0.50;0.50;;;4.20;99.90;;;;;;4933862;29;20420;-72
2021/12/02 07:26:03;;;;;;;0.80;0.50;;;4.30;99.90;;;;;;4934678;29;20177;-71
2021/12/02 07:28:34;;;;;;;0.50;0.40;;;4.30;99.90;;;;;;4934106;29;20179;-71
2021/12/02 07:31:01;;;;;;;1.03;0.67;;;4.40;99.90;;;;;;4934339;29;20208;-72
2021/12/02 07:33:28;;;;;;;0.50;0.50;;;4.40;99.90;;;;;;4933920;29;20434;-71
2021/12/02 07:35:54;;;;;;;0.50;0.50;;;4.40;99.90;;;;;;4934609;29;20787;-72
2021/12/02 07:38:21;;;;;;;4.73;0.50;;;4.40;99.90;;;;;;4934209;29;20418;-73
2021/12/02 07:40:46;;;;;;;1.27;0.40;;;4.50;99.90;;;;;;4934676;29;20174;-73
2021/12/02 07:43:12;;;;;;;0.90;0.40;;;4.50;99.90;;;;;;4933970;29;20987;-72
2021/12/02 07:45:37;;;;;;;1.10;0.40;;;4.60;99.90;;;;;;4934218;29;20202;-73
2021/12/02 07:48:04;;;;;;;0.40;0.40;;;4.60;99.90;;;;;;4934571;29;20183;-72
2021/12/02 07:50:30;;;;;;;1.90;0.73;;;4.70;99.90;;;;;;4934459;29;20235;-71
2021/12/02 07:53:00;;;;;;;0.40;0.40;;;4.70;99.90;;;;;;4934463;29;20936;-72
2021/12/02 07:55:26;;;;;;;1.27;0.50;;;4.70;99.90;;;;;;4935073;29;20425;-72
2021/12/02 07:57:52;;;;;;;0.50;0.40;;;4.70;99.90;;;;;;4938256;29;20517;-72
2021/12/02 08:00:24;;;;;;;2.60;0.50;;;4.80;99.90;;;;;;4937917;29;20401;-72
2021/12/02 08:02:51;;;;;;;1.97;0.60;;;4.80;99.90;;;;;;4937680;29;20484;-72
2021/12/02 08:05:21;;;;;;;0.67;0.50;;;4.90;99.90;;;;;;4937797;29;20786;-72
2021/12/02 08:07:46;;;;;;;0.47;0.47;;;4.90;99.90;;;;;;4937926;29;20384;-71
2021/12/02 08:10:14;;;;;;;1.17;0.40;;;4.90;99.90;;;;;;4937386;29;20417;-71
2021/12/02 08:12:46;;;;;;;0.50;0.50;;;5.00;99.90;;;;;;4937698;29;20198;-72
2021/12/02 08:15:12;;;;;;;0.70;0.50;;;5.00;99.90;;;;;;4938091;29;20428;-73
2021/12/02 08:17:38;;;;;;;1.47;0.60;;;5.10;99.90;;;;;;4938153;29;20522;-72
2021/12/02 08:20:04;;;;;;;0.93;0.50;;;5.10;99.90;;;;;;4937444;29;20510;-72
2021/12/02 08:22:31;;;;;;;0.83;0.50;;;5.20;99.90;;;;;;4937136;29;20219;-71
2021/12/02 08:24:57;;;;;;;1.17;0.40;;;5.20;99.90;;;;;;4937397;29;20398;-72
2021/12/02 08:27:23;;;;;;;0.60;0.50;;;5.20;99.90;;;;;;4937249;29;20398;-72
2021/12/02 08:29:48;;;;;;;0.67;0.57;;;5.30;99.90;;;;;;4936958;29;20287;-72
2021/12/02 08:32:14;;;;;;;0.77;0.50;;;5.30;99.90;;;;;;4936324;29;20695;-72
2021/12/02 08:34:40;;;;;;;0.83;0.53;;;5.30;99.90;;;;;;4936473;29;20422;-73
2021/12/02 08:37:08;;;;;;;0.87;0.50;;;5.30;99.90;;;;;;4936584;29;20307;-72
2021/12/02 08:39:34;;;;;;;2.40;0.50;;;5.40;99.90;;;;;;4936405;29;20416;-71
2021/12/02 08:42:01;;;;;;;0.60;0.50;;;5.40;99.90;;;;;;4936522;29;20470;-72
2021/12/02 08:44:30;;;;;;;5.23;0.60;;;5.50;99.90;;;;;;4936784;29;20184;-73
2021/12/02 08:46:55;;;;;;;1.27;0.50;;;5.50;99.90;;;;;;4937212;29;20412;-73
2021/12/02 08:49:22;;;;;;;0.83;0.60;;;5.50;99.90;;;;;;4936801;29;20407;-73
2021/12/02 08:51:49;;;;;;;1.60;0.70;;;5.50;99.90;;;;;;4935845;29;20198;-72
2021/12/02 08:54:15;;;;;;;1.30;0.60;;;5.50;99.90;;;;;;4936291;29;20420;-73
2021/12/02 08:56:41;;;;;;;0.67;0.57;;;5.50;99.90;;;;;;4937027;29;20943;-73
2021/12/02 08:59:07;;;;;;;0.87;0.60;;;5.50;99.90;;;;;;4934379;29;20433;-72
2021/12/02 09:01:34;;;;;;;1.63;0.50;;;5.50;99.90;;;;;;4936575;29;20707;-72
2021/12/02 09:04:02;;;;;;;1.47;0.60;;;5.60;99.90;;;;;;4936160;29;20815;-72
2021/12/02 09:06:28;;;;;;;0.77;0.60;;;5.60;99.90;;;;;;4936084;29;20390;-71
2021/12/02 09:08:54;;;;;;;2.33;0.80;;;5.60;99.90;;;;;;4936465;29;20416;-72
2021/12/02 09:11:21;;;;;;;5.63;0.70;;;5.70;99.90;;;;;;4936283;29;20471;-72
2021/12/02 09:13:47;;;;;;;1.33;0.80;;;5.70;99.90;;;;;;4936080;29;20451;-71
2021/12/02 09:16:13;;;;;;;3.17;0.70;;;5.80;99.90;;;;;;4936231;29;20420;-73
2021/12/02 09:18:39;;;;;;;1.00;0.77;;;5.90;99.90;;;;;;4936502;29;20444;-72
2021/12/02 09:21:05;;;;;;;5.40;0.97;;;6.00;99.90;;;;;;4936324;29;20465;-72
2021/12/02 09:23:32;;;;;;;0.83;0.80;;;6.00;99.90;;;;;;4936119;29;20467;-73
2021/12/02 09:25:58;;;;;;;1.30;0.67;;;6.20;99.90;;;;;;4936136;29;20796;-73
2021/12/02 09:28:25;;;;;;;1.80;0.80;;;6.10;99.90;;;;;;4934608;29;20420;-73
2021/12/02 09:30:51;;;;;;;1.47;0.60;;;6.20;99.90;;;;;;4935864;29;20437;-72
2021/12/02 09:33:17;;;;;;;2.87;0.70;;;6.20;99.90;;;;;;4935739;29;20421;-73
2021/12/02 09:35:43;;;;;;;2.47;0.70;;;6.30;99.90;;;;;;4935958;29;20438;-72
2021/12/02 09:38:10;;;;;;;1.50;0.83;;;6.30;99.90;;;;;;4936053;29;20178;-73
2021/12/02 09:40:36;;;;;;;0.80;0.70;;;6.30;99.90;;;;;;4935920;29;20175;-72
2021/12/02 09:43:03;;;;;;;1.03;0.80;;;6.30;99.90;;;;;;4935492;29;20975;-73
2021/12/02 09:45:28;;;;;;;1.00;0.90;;;6.20;99.90;;;;;;4935906;29;20491;-72
2021/12/02 09:47:54;;;;;;;1.13;0.90;;;6.10;99.90;;;;;;4935615;29;20808;-71
2021/12/02 09:50:33;;;;;;;3.47;0.90;;;5.90;99.90;;;;;;4935766;29;20528;-73
2021/12/02 09:53:10;;;;;;;1.10;0.90;;;5.80;99.90;;;;;;4935644;29;20262;-71
2021/12/02 09:55:53;;;;;;;3.10;1.20;;;5.60;99.90;;;;;;4936031;29;20844;-72
2021/12/02 09:58:26;;;;;;;1.43;0.70;;;5.60;99.90;;;;;;4934480;29;20935;-72
2021/12/02 10:01:15;;;;;;;2.93;1.10;;;5.40;99.90;;;;;;4935812;29;20790;-72
2021/12/02 10:03:40;;;;;;;1.00;1.00;;;5.10;99.90;;;;;;4935235;29;20454;-72
2021/12/02 10:06:19;;;;;;;3.03;1.90;;;4.90;99.90;;;;;;4936029;29;20846;-73
2021/12/02 10:11:28;;;;;;;1.60;0.80;;;4.60;99.90;;;;;;4935618;29;20975;-73
2021/12/02 10:14:00;;;;;;;0.97;0.60;;;4.50;99.90;;;;;;4932612;29;20429;-73
2021/12/02 10:16:38;;;;;;;2.93;0.60;;;4.40;99.90;;;;;;4935159;29;20466;-73
2021/12/02 10:22:03;;;;;;;0.90;0.70;;;4.20;99.90;;;;;;4916548;29;20466;-73
2021/12/02 10:24:30;;;;;;;0.50;0.50;;;4.10;99.90;;;;;;4916229;29;20182;-72
2021/12/02 10:27:05;;;;;;;0.50;0.50;;;4.10;99.90;;;;;;4916601;29;20390;-73
2021/12/02 10:29:33;;;;;;;0.60;0.60;;;4.00;99.90;;;;;;4916305;29;20917;-73
2021/12/02 10:32:25;;;;;;;0.60;0.60;;;3.90;99.90;;;;;;4915835;29;20463;-73
2021/12/02 10:35:01;;;;;;;0.90;0.90;;;4.00;99.90;;;;;;4916405;29;20959;-73
2021/12/02 10:37:39;;;;;;;1.90;0.83;;;4.00;99.90;;;;;;4916307;29;20462;-73
2021/12/02 10:40:09;;;;;;;0.80;0.73;;;4.00;99.90;;;;;;4916232;29;20401;-73
2021/12/02 10:42:38;;;;;;;0.80;0.80;;;4.10;99.90;;;;;;4914560;29;20510;-73
2021/12/02 10:45:07;;;;;;;4.67;0.70;;;4.20;99.90;;;;;;4926405;29;20430;-73
2021/12/02 10:47:34;;;;;;;0.60;0.60;;;4.20;99.90;;;;;;4934122;29;20430;-73
2021/12/02 10:50:07;;;;;;;0.60;0.60;;;4.10;99.90;;;;;;4930983;29;20421;-71
2021/12/02 10:52:34;;;;;;;2.43;0.80;;;4.20;99.90;;;;;;4929307;29;20449;-72
2021/12/02 10:55:11;;;;;;;0.60;0.60;;;4.20;99.90;;;;;;4927172;29;20455;-73
2021/12/02 10:57:47;;;;;;;0.80;0.70;;;4.20;99.90;;;;;;4932292;29;20431;-72
2021/12/02 11:00:18;;;;;;;1.27;0.80;;;4.20;99.90;;;;;;4933603;29;20927;-73
2021/12/02 11:02:49;;;;;;;6.27;0.63;;;4.20;99.90;;;;;;4929647;29;21012;-71
2021/12/02 11:05:25;;;;;;;2.20;0.50;;;4.20;99.90;;;;;;4931384;29;20511;-71
2021/12/02 11:08:05;;;;;;;0.80;0.80;;;4.20;99.90;;;;;;4934785;29;20393;-72
2021/12/02 11:10:40;;;;;;;0.63;0.63;;;4.10;99.90;;;;;;4934666;29;20447;-72
2021/12/02 11:13:08;;;;;;;0.60;0.60;;;4.10;99.90;;;;;;4920508;29;20827;-73
2021/12/02 11:15:35;;;;;;;0.90;0.80;;;4.10;99.90;;;;;;4929000;29;20531;-73
2021/12/02 11:18:06;;;;;;;0.60;0.60;;;4.10;99.90;;;;;;4922536;29;20436;-73
2021/12/02 11:20:41;;;;;;;0.90;0.60;;;4.10;99.90;;;;;;4924350;29;20446;-72
2021/12/02 11:23:19;;;;;;;2.30;0.60;;;4.10;99.90;;;;;;4930977;29;20461;-73
2021/12/02 11:25:58;;;;;;;1.27;1.17;;;4.10;99.90;;;;;;4922111;29;20892;-73
2021/12/02 11:28:26;;;;;;;0.90;0.90;;;4.10;99.90;;;;;;4922981;29;20432;-73
2021/12/02 11:30:53;;;;;;;0.90;0.63;;;4.10;99.90;;;;;;4920060;29;20447;-73
2021/12/02 11:33:19;;;;;;;0.60;0.60;;;4.10;99.90;;;;;;4915370;29;20433;-73
2021/12/02 11:35:47;;;;;;;0.70;0.70;;;4.20;99.90;;;;;;4922966;29;20468;-73
2021/12/02 11:38:23;;;;;;;1.00;0.90;;;4.20;99.90;;;;;;4921229;29;20424;-73
2021/12/02 11:40:54;;;;;;;0.70;0.70;;;4.20;99.90;;;;;;4915438;29;20427;-74
2021/12/02 11:43:30;;;;;;;1.03;0.80;;;4.20;99.90;;;;;;4932547;29;20519;-73
2021/12/02 11:45:59;;;;;;;0.73;0.73;;;4.30;99.90;;;;;;4934243;29;20419;-73
2021/12/02 11:48:34;;;;;;;0.90;0.80;;;4.30;99.90;;;;;;4933910;29;20428;-73
2021/12/02 11:51:03;;;;;;;3.57;0.90;;;4.40;99.90;;;;;;4934073;29;20426;-74
2021/12/02 11:53:29;;;;;;;1.27;0.60;;;4.50;99.90;;;;;;4933760;29;20848;-73
2021/12/02 11:56:01;;;;;;;1.00;1.00;;;4.50;99.90;;;;;;4934176;29;20425;-73
2021/12/02 11:58:27;;;;;;;2.90;1.07;;;4.60;99.90;;;;;;4932729;29;20508;-74
2021/12/02 12:00:55;;;;;;;2.20;1.00;;;4.70;99.90;;;;;;4934564;29;20446;-73
2021/12/02 12:03:34;;;;;;;0.80;0.80;;;4.60;99.90;;;;;;4933781;29;20867;-72
2021/12/02 12:06:03;;;;;;;1.00;1.00;;;4.60;99.90;;;;;;4934275;29;20454;-74
2021/12/02 12:08:33;;;;;;;1.43;0.90;;;4.70;99.90;;;;;;4933425;29;20414;-73
2021/12/02 12:11:20;;;;;;;1.63;0.80;;;4.60;99.90;;;;;;4934135;29;20435;-73
2021/12/02 12:13:47;;;;;;;2.60;1.10;;;4.60;99.90;;;;;;4933469;29;21161;-71
2021/12/02 12:16:25;;;;;;;1.93;1.33;;;4.70;99.90;;;;;;4933730;29;20425;-72
2021/12/02 12:18:51;;;;;;;1.37;0.80;;;4.70;99.90;;;;;;4932744;29;20414;-71
2021/12/02 12:21:17;;;;;;;1.40;1.10;;;4.70;99.90;;;;;;4933310;29;20454;-71
2021/12/02 12:23:58;;;;;;;0.90;0.90;;;4.80;99.90;;;;;;4933847;29;20420;-72
2021/12/02 12:26:33;;;;;;;1.60;1.50;;;4.70;99.90;;;;;;4934366;29;20726;-74
2021/12/02 12:29:05;;;;;;;4.10;1.10;;;4.80;99.90;;;;;;4934382;29;20784;-73
2021/12/02 12:31:43;;;;;;;3.50;1.40;;;4.80;99.90;;;;;;4934057;29;20456;-73
2021/12/02 12:34:28;;;;;;;1.23;1.13;;;4.90;99.90;;;;;;4933965;29;20506;-73
2021/12/02 12:36:54;;;;;;;1.40;1.30;;;4.90;99.90;;;;;;4934178;29;20859;-73
2021/12/02 12:39:25;;;;;;;1.80;1.37;;;4.90;99.90;;;;;;4933830;29;20545;-73
2021/12/02 12:42:10;;;;;;;1.70;1.60;;;4.90;99.90;;;;;;4934718;29;20504;-73
2021/12/02 12:44:49;;;;;;;2.47;1.90;;;4.90;99.90;;;;;;4937537;29;20255;-73
2021/12/02 12:47:16;;;;;;;1.20;1.10;;;4.90;99.90;;;;;;4936960;29;20381;-71
2021/12/02 12:49:42;;;;;;;1.83;1.73;;;4.90;99.90;;;;;;4937247;29;20461;-74
2021/12/02 12:52:19;;;;;;;1.70;1.07;;;4.90;99.90;;;;;;4937334;29;20433;-74
2021/12/02 12:55:17;;;;;;;1.30;1.20;;;4.90;99.90;;;;;;4937446;29;20469;-74
2021/12/02 12:58:17;;;;;;;4.40;2.80;;;5.00;99.90;;;;;;4937627;29;20788;-74
2021/12/02 13:00:48;;;;;;;6.60;1.90;;;5.00;99.90;;;;;;4936237;29;20416;-72
2021/12/02 13:03:40;;;;;;;1.80;1.70;;;5.10;99.90;;;;;;4933801;29;20458;-72
2021/12/02 13:06:17;;;;;;;4.93;2.80;;;5.10;99.90;;;;;;4917935;29;20423;-72
2021/12/02 13:08:58;;;;;;;2.50;2.30;;;5.20;99.90;;;;;;4917874;29;20424;-73
2021/12/02 13:11:32;;;;;;;2.60;1.80;;;5.20;99.90;;;;;;4917467;29;20418;-73
2021/12/02 13:14:03;;;;;;;2.33;2.10;;;5.30;99.90;;;;;;4931905;29;20438;-73
2021/12/02 13:16:37;;;;;;;3.53;1.93;;;5.30;99.90;;;;;;4917593;29;20461;-72
2021/12/02 13:19:12;;;;;;;1.73;1.63;;;5.30;99.90;;;;;;4917404;29;20500;-71
2021/12/02 13:21:39;;;;;;;2.30;2.00;;;5.30;99.90;;;;;;4917425;29;20472;-73
2021/12/02 13:24:09;;;;;;;1.97;1.80;;;5.20;99.90;;;;;;4917378;29;20790;-72
2021/12/02 13:26:46;;;;;;;4.40;1.90;;;5.20;99.90;;;;;;4917497;29;20482;-72
2021/12/02 13:29:23;;;;;;;5.83;2.27;;;5.20;99.90;;;;;;4917216;29;20410;-73
2021/12/02 13:31:52;;;;;;;3.60;2.30;;;5.10;99.90;;;;;;4917181;29;20464;-73
2021/12/02 13:34:20;;;;;;;3.67;2.20;;;5.20;99.90;;;;;;4916784;29;20784;-73
2021/12/02 13:37:00;;;;;;;3.33;2.93;;;5.10;99.90;;;;;;4917419;29;20428;-72
2021/12/02 13:39:31;;;;;;;2.20;1.50;;;5.10;99.90;;;;;;4917159;29;20837;-72
2021/12/02 13:42:06;;;;;;;2.23;1.70;;;5.00;99.90;;;;;;4917272;29;20570;-73
2021/12/02 13:44:38;;;;;;;2.70;2.00;;;4.80;99.90;;;;;;4916960;29;20428;-73
2021/12/02 13:47:28;;;;;;;3.43;1.63;;;4.40;99.90;;;;;;4915867;29;20390;-71
2021/12/02 13:49:57;;;;;;;1.27;1.17;;;4.10;99.90;;;;;;4917205;29;20502;-72
2021/12/02 13:52:40;;;;;;;1.83;1.17;;;3.90;99.90;;;;;;4916910;29;20446;-73
2021/12/02 13:55:26;;;;;;;4.03;0.70;;;3.90;99.90;;;;;;4917100;29;20430;-72
2021/12/02 13:57:56;;;;;;;1.43;1.33;;;3.70;99.90;;;;;;4916980;29;20424;-72
2021/12/02 14:00:33;;;;;;;1.10;1.03;;;3.70;99.90;;;;;;4916877;29;20543;-73
2021/12/02 14:03:01;;;;;;;1.27;1.27;;;3.60;99.90;;;;;;4916555;29;20545;-72
2021/12/02 14:05:29;;;;;;;2.40;1.10;;;3.60;99.90;;;;;;4916922;29;20422;-71
2021/12/02 14:07:59;;;;;;;3.03;2.70;;;3.60;99.90;;;;;;4916823;29;20414;-72
2021/12/02 14:10:28;;;;;;;1.40;1.30;;;3.50;99.90;;;;;;4916829;29;20469;-71
2021/12/02 14:13:05;;;;;;;0.97;0.90;;;3.50;99.90;;;;;;4916735;29;20434;-72
2021/12/02 14:15:57;;;;;;;1.10;1.00;;;3.40;99.90;;;;;;4916935;29;20782;-73
2021/12/02 14:18:25;;;;;;;1.57;0.97;;;3.50;99.90;;;;;;4916555;29;20425;-73
2021/12/02 14:21:02;;;;;;;1.37;0.83;;;3.50;99.90;;;;;;4916593;29;21003;-74
2021/12/02 14:23:28;;;;;;;1.80;1.00;;;3.40;99.90;;;;;;4925961;29;20531;-73
2021/12/02 14:25:57;;;;;;;1.93;1.10;;;3.40;99.90;;;;;;4937149;29;21011;-72
2021/12/02 14:28:36;;;;;;;1.70;1.20;;;3.40;99.90;;;;;;4935748;29;20178;-72
2021/12/02 14:31:20;;;;;;;2.80;1.40;;;3.40;99.90;;;;;;4935410;29;20419;-73
2021/12/02 14:33:46;;;;;;;4.93;1.40;;;3.40;99.90;;;;;;4935254;29;20504;-73
2021/12/02 14:36:17;;;;;;;2.33;1.27;;;3.40;99.90;;;;;;4935428;29;20844;-73
2021/12/02 14:39:04;;;;;;;1.13;1.00;;;3.40;99.90;;;;;;4935443;29;20421;-73
2021/12/02 14:41:36;;;;;;;1.73;1.03;;;3.40;99.90;;;;;;4934534;29;20585;-73
2021/12/02 14:44:09;;;;;;;1.10;1.10;;;3.40;99.90;;;;;;4935202;29;20458;-73
2021/12/02 14:46:40;;;;;;;2.97;1.70;;;3.40;99.90;;;;;;4935131;29;20508;-72
2021/12/02 14:49:10;;;;;;;1.40;1.30;;;3.40;99.90;;;;;;4935221;29;20430;-72
2021/12/02 14:51:59;;;;;;;2.50;1.23;;;3.50;99.90;;;;;;4934876;29;20486;-72
2021/12/02 14:54:46;;;;;;;2.50;1.90;;;3.50;99.90;;;;;;4934834;29;20423;-72
2021/12/02 14:57:12;;;;;;;3.27;2.00;;;3.50;99.90;;;;;;4935175;29;20930;-73
2021/12/02 14:59:39;;;;;;;1.50;1.40;;;3.50;99.90;;;;;;4934977;29;20431;-72
2021/12/02 15:02:40;;;;;;;1.60;1.50;;;3.40;99.90;;;;;;4935126;29;20233;-72
2021/12/02 15:05:29;;;;;;;1.30;1.20;;;3.40;99.90;;;;;;4934808;29;21001;-72
2021/12/02 15:07:59;;;;;;;2.10;1.50;;;3.40;99.90;;;;;;4935036;29;20793;-72
2021/12/02 15:10:31;;;;;;;1.70;1.60;;;3.40;99.90;;;;;;4935010;29;20406;-72
2021/12/02 15:13:23;;;;;;;1.37;1.20;;;3.30;99.90;;;;;;4934609;29;20425;-72
2021/12/02 15:15:51;;;;;;;2.10;1.40;;;3.30;99.90;;;;;;4933852;29;20856;-72
2021/12/02 15:18:21;;;;;;;1.47;1.37;;;3.30;99.90;;;;;;4934789;29;20968;-71
2021/12/02 15:20:49;;;;;;;2.57;2.03;;;3.30;99.90;;;;;;4934968;29;20421;-72
2021/12/02 15:23:25;;;;;;;4.33;2.40;;;3.40;99.90;;;;;;4926985;29;20469;-72
2021/12/02 15:26:00;;;;;;;1.13;1.00;;;3.30;99.90;;;;;;4933800;29;20452;-73
2021/12/02 15:28:27;;;;;;;1.07;1.00;;;3.20;99.90;;;;;;4934722;29;20975;-73
2021/12/02 15:31:09;;;;;;;1.43;1.23;;;2.90;99.90;;;;;;4934563;29;20439;-71
2021/12/02 15:33:37;;;;;;;1.53;0.80;;;2.80;99.90;;;;;;4934429;29;20509;-72
2021/12/02 15:36:17;;;;;;;2.30;0.83;;;2.60;99.90;;;;;;4934571;29;20485;-72
2021/12/02 15:38:45;;;;;;;2.17;1.43;;;2.50;99.90;;;;;;4934687;29;20473;-73
2021/12/02 15:41:17;;;;;;;1.47;1.30;;;2.30;99.90;;;;;;4934243;29;20782;-71
2021/12/02 15:44:01;;;;;;;1.07;1.00;;;2.30;99.90;;;;;;4934874;29;20396;-72
2021/12/02 15:46:40;;;;;;;1.23;0.80;;;2.40;99.90;;;;;;4934284;29;21006;-72
2021/12/02 15:49:07;;;;;;;2.70;1.70;;;2.30;99.90;;;;;;4934239;29;20400;-73
2021/12/02 15:51:34;;;;;;;1.67;1.47;;;2.30;99.90;;;;;;4934074;29;20425;-73
2021/12/02 15:54:01;;;;;;;2.20;1.00;;;2.40;99.90;;;;;;4933858;29;20886;-74
2021/12/02 15:56:26;;;;;;;2.67;1.23;;;2.40;99.90;;;;;;4933942;29;20416;-73
2021/12/02 15:58:52;;;;;;;1.27;1.20;;;2.30;99.90;;;;;;4933943;29;20427;-73
2021/12/02 16:01:26;;;;;;;2.00;1.07;;;2.30;99.90;;;;;;4933606;29;20562;-73
2021/12/02 16:03:57;;;;;;;1.03;0.80;;;2.30;99.90;;;;;;4933799;29;20659;-73
2021/12/02 16:06:32;;;;;;;1.90;0.90;;;2.40;99.90;;;;;;4933895;29;20422;-73
2021/12/02 16:09:18;;;;;;;2.53;1.33;;;2.30;99.90;;;;;;4933978;29;20401;-73
2021/12/02 16:12:03;;;;;;;1.07;0.97;;;2.30;99.90;;;;;;4934005;29;20441;-74
2021/12/02 16:14:29;;;;;;;1.43;1.30;;;2.30;99.90;;;;;;4933575;29;20565;-75
2021/12/02 16:16:55;;;;;;;1.23;1.23;;;2.30;99.90;;;;;;4935576;29;20500;-73
2021/12/02 16:19:21;;;;;;;1.00;1.00;;;2.30;99.90;;;;;;4937257;29;20184;-73
2021/12/02 16:21:47;;;;;;;1.27;1.13;;;2.20;99.90;;;;;;4937286;29;20468;-73
2021/12/02 16:24:12;;;;;;;2.27;1.10;;;2.20;99.90;;;;;;4937162;29;20426;-73
2021/12/02 16:26:38;;;;;;;1.20;1.00;;;2.20;99.90;;;;;;4937455;29;20178;-73
2021/12/02 16:29:04;;;;;;;3.43;1.43;;;2.30;99.90;;;;;;4937379;29;20182;-73
2021/12/02 16:31:30;;;;;;;3.20;1.40;;;2.30;99.90;;;;;;4936866;29;20252;-73
2021/12/02 16:33:57;;;;;;;8.80;6.77;;;2.40;99.90;;;;;;4935998;29;20467;-73
2021/12/02 16:36:23;;;;;;;5.43;2.53;;;2.40;99.90;;;;;;4935711;29;20287;-73
2021/12/02 16:39:14;;;;;;;1.80;1.50;;;2.40;99.90;;;;;;4937064;29;20526;-73
2021/12/02 16:41:39;;;;;;;2.03;1.87;;;2.40;99.90;;;;;;4936070;29;20292;-74
2021/12/02 16:44:05;;;;;;;1.80;1.70;;;2.40;99.90;;;;;;4936636;29;21031;-73
2021/12/02 16:46:30;;;;;;;3.50;2.20;;;2.60;99.90;;;;;;4936878;29;20193;-73
2021/12/02 16:48:57;;;;;;;6.00;2.40;;;2.60;99.90;;;;;;4936820;29;20211;-73
2021/12/02 16:51:29;;;;;;;3.17;2.33;;;2.60;99.90;;;;;;4936699;29;20562;-73
2021/12/02 16:53:54;;;;;;;3.97;2.87;;;2.60;99.90;;;;;;4935482;29;20426;-73
2021/12/02 16:56:20;;;;;;;3.63;1.93;;;2.60;99.90;;;;;;4936699;29;20404;-73
2021/12/02 16:58:46;;;;;;;2.20;2.10;;;2.60;99.90;;;;;;4936613;29;20196;-73
2021/12/02 17:01:11;;;;;;;2.53;2.03;;;2.60;99.90;;;;;;4936560;29;20233;-73
2021/12/02 17:03:38;;;;;;;2.77;2.57;;;2.60;99.90;;;;;;4936513;29;20284;-73
2021/12/02 17:06:04;;;;;;;2.70;2.50;;;2.50;99.90;;;;;;4936592;29;20177;-73
2021/12/02 17:08:32;;;;;;;2.90;2.70;;;2.50;99.90;;;;;;4936566;29;20425;-73
2021/12/02 17:11:01;;;;;;;2.17;2.07;;;2.40;99.90;;;;;;4936365;29;20467;-73
2021/12/02 17:13:27;;;;;;;4.13;2.67;;;2.30;99.90;;;;;;4935035;29;20450;-74
2021/12/02 17:15:52;;;;;;;2.10;1.70;;;2.10;99.90;;;;;;4936467;29;20421;-73
2021/12/02 17:18:18;;;;;;;3.70;2.30;;;2.10;99.90;;;;;;4936625;29;20214;-74
2021/12/02 17:20:43;;;;;;;2.57;2.37;;;2.10;99.90;;;;;;4936561;29;20177;-73
2021/12/02 17:23:11;;;;;;;2.87;2.60;;;2.10;99.90;;;;;;4936197;29;20211;-72
2021/12/02 17:25:37;;;;;;;3.33;3.10;;;2.10;99.90;;;;;;4936812;29;20209;-74
2021/12/02 17:28:04;;;;;;;4.17;2.60;;;2.10;99.90;;;;;;4936226;29;20432;-73
2021/12/02 17:30:31;;;;;;;5.07;2.37;;;2.00;99.90;;;;;;4937076;29;20399;-73
2021/12/02 17:32:57;;;;;;;5.67;3.10;;;1.90;99.90;;;;;;4936048;29;20468;-73
2021/12/02 17:35:23;;;;;;;5.73;3.50;;;1.90;99.90;;;;;;4936349;29;20392;-73
2021/12/02 17:37:50;;;;;;;4.97;3.87;;;2.00;99.90;;;;;;4921208;29;20561;-72
2021/12/02 17:40:39;;;;;;;5.47;3.50;;;2.00;99.90;;;;;;4935659;29;21006;-73
2021/12/02 17:43:10;;;;;;;5.50;2.40;;;1.90;99.90;;;;;;4925836;29;20455;-72
2021/12/02 17:45:35;;;;;;;2.90;2.70;;;1.80;99.90;;;;;;4935533;29;20449;-71
2021/12/02 17:48:01;;;;;;;3.70;3.20;;;1.70;99.90;;;;;;4935108;29;20453;-72
2021/12/02 17:50:31;;;;;;;3.10;2.90;;;1.60;99.90;;;;;;4934897;29;20224;-72
2021/12/02 17:52:58;;;;;;;3.13;1.60;;;1.70;99.90;;;;;;4935062;29;20435;-72